TimeCST,TemperatureF,Dew PointF,Humidity,Sea Level PressureIn,VisibilityMPH,Wind Direction,Wind SpeedMPH,Gust SpeedMPH,PrecipitationIn,Events,Conditions,WindDirDegrees,DateUTC
12:06 AM,-0.9,-7.1,75,29.93,2.0,SSW,6.9,-,0.00,Snow,Light Snow,200,2014-01-22 06:06:00
12:42 AM,-0.9,-6.0,79,29.91,2.0,SSW,5.8,-,0.00,Snow,Light Snow,210,2014-01-22 06:42:00
12:53 AM,-0.9,-6.0,79,30.02,2.0,SSW,5.8,-,0.01,Snow,Light Snow,200,2014-01-22 06:53:00
1:14 AM,-0.9,-6.0,79,29.90,3.0,Variable,5.8,-,0.00,Snow,Light Snow,0,2014-01-22 07:14:00
1:53 AM,-0.9,-7.1,75,29.99,5.0,SW,4.6,-,0.00,Snow,Light Snow,220,2014-01-22 07:53:00
2:53 AM,-0.9,-6.0,79,29.99,5.0,Calm,Calm,-,0.00,Snow,Light Snow,0,2014-01-22 08:53:00
3:53 AM,-0.9,-6.0,79,29.97,8.0,Calm,Calm,-,0.00,,Overcast,0,2014-01-22 09:53:00
4:53 AM,-0.9,-6.0,79,29.96,8.0,Variable,3.5,-,N/A,,Overcast,0,2014-01-22 10:53:00
5:53 AM,-0.9,-7.1,75,29.96,9.0,North,-9999.0,-,0.00,Snow,Light Snow,0,2014-01-22 11:53:00
6:29 AM,-0.9,-7.1,75,29.85,2.5,Calm,Calm,-,0.00,Snow,Light Snow,0,2014-01-22 12:29:00
6:43 AM,-0.9,-7.1,75,29.85,3.0,West,5.8,-,0.00,Snow,Light Snow,270,2014-01-22 12:43:00
6:53 AM,-0.9,-7.1,75,29.96,2.5,Calm,Calm,-,0.00,Snow,Light Snow,0,2014-01-22 12:53:00
7:40 AM,-0.9,-7.1,75,29.86,1.8,Calm,Calm,-,0.00,Snow,Light Snow,0,2014-01-22 13:40:00
7:53 AM,-0.9,-7.1,75,29.98,1.5,Variable,4.6,-,0.00,Snow,Light Snow,0,2014-01-22 13:53:00
8:11 AM,-0.9,-7.1,75,29.88,0.8,Variable,5.8,-,0.00,Snow,Light Snow,0,2014-01-22 14:11:00
8:19 AM,-0.9,-6.0,79,29.88,0.8,Variable,4.6,-,0.00,Snow,Light Snow,0,2014-01-22 14:19:00
8:33 AM,-0.0,-7.1,72,29.88,1.0,Variable,4.6,-,0.00,Snow,Light Snow,0,2014-01-22 14:33:00
8:40 AM,-0.0,-7.1,72,29.88,1.8,Calm,Calm,-,0.00,Snow,Light Snow,0,2014-01-22 14:40:00
8:45 AM,-0.0,-7.1,72,29.88,2.0,Calm,Calm,-,0.00,Snow,Light Snow,0,2014-01-22 14:45:00
8:53 AM,-0.0,-6.0,76,29.99,2.5,Variable,4.6,-,0.00,Snow,Light Snow,0,2014-01-22 14:53:00
9:18 AM,-0.0,-7.1,72,29.89,2.5,Variable,5.8,-,0.00,Snow,Light Snow,0,2014-01-22 15:18:00
9:26 AM,-0.0,-8.0,69,29.90,3.0,Variable,5.8,-,0.00,,Haze,0,2014-01-22 15:26:00
9:41 AM,-0.0,-9.0,66,29.90,2.0,Variable,6.9,18.4,0.00,Snow,Light Snow,0,2014-01-22 15:41:00
9:53 AM,-0.9,-9.0,69,30.01,2.5,NW,9.2,20.7,0.00,,Overcast,310,2014-01-22 15:53:00
10:03 AM,-0.0,-8.0,69,29.92,1.2,NW,10.4,19.6,0.00,Snow,Light Snow,320,2014-01-22 16:03:00
10:10 AM,-0.0,-8.0,69,29.92,0.8,Variable,4.6,-,0.00,Snow,Light Snow,0,2014-01-22 16:10:00
10:21 AM,-0.9,-8.0,72,29.92,1.2,Variable,5.8,-,0.00,Snow,Light Snow,0,2014-01-22 16:21:00
10:41 AM,-0.9,-8.0,72,29.93,0.8,Variable,6.9,-,0.00,Snow,Light Snow,0,2014-01-22 16:41:00
10:53 AM,-0.9,-8.0,72,30.04,0.5,Variable,6.9,18.4,0.00,Snow,Snow,0,2014-01-22 16:53:00
11:04 AM,-2.0,-9.0,72,29.93,1.0,Variable,6.9,-,0.00,Snow,Light Snow,0,2014-01-22 17:04:00
11:26 AM,-0.9,-9.9,66,29.94,1.8,Variable,6.9,18.4,0.00,Snow,Light Snow,0,2014-01-22 17:26:00
11:46 AM,-0.9,-11.0,62,29.94,2.0,Variable,5.8,18.4,0.00,Snow,Light Snow,0,2014-01-22 17:46:00
11:53 AM,-2.0,-9.9,69,30.05,1.2,NW,8.1,-,0.00,Snow,Light Snow,310,2014-01-22 17:53:00
12:06 PM,-2.0,-11.9,63,29.95,3.0,Variable,5.8,-,0.00,Snow,Light Snow,0,2014-01-22 18:06:00
12:16 PM,-2.0,-11.0,66,29.95,1.8,North,-9999.0,-,0.00,Snow,Light Snow,0,2014-01-22 18:16:00
12:25 PM,-2.0,-11.9,63,29.95,2.5,NNW,8.1,17.3,0.00,,Overcast,340,2014-01-22 18:25:00
12:32 PM,-0.9,-11.9,60,29.95,6.0,Variable,6.9,19.6,0.00,,Haze,0,2014-01-22 18:32:00
12:43 PM,-0.9,-11.0,62,29.95,2.0,NW,9.2,-,0.00,Snow,Light Snow,320,2014-01-22 18:43:00
12:53 PM,-0.9,-11.0,62,30.06,2.0,NW,8.1,-,0.00,Snow,Light Snow,320,2014-01-22 18:53:00
1:03 PM,-0.9,-11.9,60,29.96,5.0,Variable,5.8,20.7,0.00,,Overcast,0,2014-01-22 19:03:00
1:53 PM,-0.0,-11.9,57,30.08,8.0,NNW,9.2,18.4,0.00,,Overcast,340,2014-01-22 19:53:00
2:53 PM,-0.0,-9.9,63,30.12,3.0,Variable,6.9,-,N/A,,Haze,0,2014-01-22 20:53:00
3:15 PM,-0.9,-11.0,62,30.03,4.0,NNW,8.1,19.6,0.00,,Haze,330,2014-01-22 21:15:00
3:34 PM,-0.9,-9.9,66,30.05,2.0,NNW,8.1,-,0.00,Snow,Light Snow,340,2014-01-22 21:34:00
3:42 PM,-0.9,-9.9,66,30.05,2.0,NW,9.2,-,0.00,,Overcast,310,2014-01-22 21:42:00
3:53 PM,-0.9,-9.9,66,30.17,2.0,Variable,6.9,16.1,0.00,,Overcast,0,2014-01-22 21:53:00
4:38 PM,-2.0,-11.0,66,30.10,3.0,Variable,6.9,18.4,0.00,,Overcast,0,2014-01-22 22:38:00
4:53 PM,-2.9,-11.0,68,30.22,5.0,Variable,4.6,-,0.00,,Haze,0,2014-01-22 22:53:00
5:53 PM,-4.0,-11.0,72,30.25,6.0,Variable,3.5,-,N/A,,Haze,0,2014-01-22 23:53:00
6:53 PM,-5.1,-11.9,72,30.28,9.0,Variable,4.6,-,N/A,,Mostly Cloudy,0,2014-01-23 00:53:00
7:07 PM,-5.1,-11.9,72,30.18,10.0,Variable,4.6,-,N/A,,Scattered Clouds,0,2014-01-23 01:07:00
7:16 PM,-5.1,-11.9,72,30.18,10.0,Variable,4.6,-,N/A,,Mostly Cloudy,0,2014-01-23 01:16:00
7:24 PM,-5.1,-11.9,72,30.18,10.0,Variable,3.5,-,N/A,,Mostly Cloudy,0,2014-01-23 01:24:00
7:37 PM,-6.0,-11.9,75,30.19,9.0,Variable,4.6,-,N/A,,Overcast,0,2014-01-23 01:37:00
7:53 PM,-6.0,-11.9,75,30.32,10.0,Variable,4.6,-,N/A,,Scattered Clouds,0,2014-01-23 01:53:00
8:53 PM,-4.0,-11.9,69,30.35,10.0,Variable,6.9,-,N/A,,Clear,0,2014-01-23 02:53:00
9:53 PM,-5.1,-11.9,72,30.38,10.0,Variable,4.6,-,N/A,,Mostly Cloudy,0,2014-01-23 03:53:00
10:53 PM,-6.0,-13.0,72,30.41,10.0,NW,8.1,-,N/A,,Clear,320,2014-01-23 04:53:00
11:53 PM,-7.1,-14.1,72,30.43,10.0,Variable,4.6,-,N/A,,Clear,0,2014-01-23 05:53:00